Boncath, United Kingdom
Current Conditions -  °F | °C
As of 2:50 AM on Sunday 23 Nov 2014 (Local Time) from EGOP Reporting Station
Broken Clouds Broken Clouds  
Wind Chill: 46°   Ceiling: 4700
Heat Index: 46°   Visibility: 6mi
Dew Point: 45°   Wind: 1mph
Humidity: 93%   Direction: 70°ENE
Pressure: 30.03"   Gusts: NA
Location:  52.02°N, 4.58°W
Report Text: EGOP 230250Z AUTO 07001KT 9999 // BKN047/// 08/07 Q1017
Loading
Personal Weather Stations






























Interactive Weather Map New forecast layout! Learn more

10-Day Weather Forecast

Advertisements
Track Severe Weather on mobile